Anadolu University Airport Eskisehir TR
ICAO: LTBY
IATA: AOE
Category: Medium
Scheduled Services: Yes

Elevation: 2588 ft
TransAlt. 10000 ft.

Airport Communications:
TWR:123.75

LTBY Zoom In..

If you have problems with the map follow the link
https://www.worldairports.se/pages/airport.php?
ICAO=LTBY

Runways:

(A) RW 09 length 9843 ft width 148 ft
ILS 110.30 / hdg 88

(B) RW 27 length 9843 ft width 148 ft
---- / hdg 268

Location; LTBY
Day. 22 / Time. 11.50 Zulu
* QNH: 1014
* Temperature: 10° c. 50°f.
* Wind from: VRB° Speed 01 kn.
Dewpoint: 01° c.
Visibility: 10 km or more.
Clouds: Scattered 4000 ft.

LTBY 221150Z VRB01KT 9999 SCT040 10/01 Q1014


Wind From VRB°
Speed 01 kn.

 
 
jpsmedia.com for Web Design worldairports.se 2019   terms of use